createdAt,value
2019-01-20T00:01:35.576Z,35.73
2019-01-20T00:04:05.047Z,35.57
2019-01-20T00:06:35.045Z,32.25
2019-01-20T00:09:07.283Z,33.17
2019-01-20T00:11:36.869Z,33.30
2019-01-20T00:14:06.473Z,31.63
2019-01-20T00:16:35.855Z,31.90
2019-01-20T00:19:05.040Z,32.45
2019-01-20T00:21:34.459Z,34.60
2019-01-20T00:24:03.661Z,33.90
2019-01-20T00:26:32.797Z,31.17
2019-01-20T00:29:02.003Z,32.40
2019-01-20T00:31:31.200Z,31.23
2019-01-20T00:34:00.255Z,30.50
2019-01-20T00:36:29.391Z,30.50
2019-01-20T00:38:58.483Z,31.30
2019-01-20T00:41:27.693Z,29.87
2019-01-20T00:43:56.949Z,30.92
2019-01-20T00:46:26.169Z,31.60
2019-01-20T00:48:55.355Z,32.35
2019-01-20T00:51:24.688Z,31.97
2019-01-20T00:53:53.908Z,33.25
2019-01-20T00:56:23.141Z,33.13
2019-01-20T00:58:52.511Z,30.72
2019-01-20T01:01:21.628Z,29.50
2019-01-20T01:03:50.758Z,31.27
2019-01-20T01:06:21.258Z,30.60
2019-01-20T01:08:50.381Z,29.95
2019-01-20T01:11:19.453Z,28.32
2019-01-20T01:13:48.574Z,32.08
2019-01-20T01:16:17.654Z,31.15
2019-01-20T01:18:47.045Z,28.20
2019-01-20T01:21:16.444Z,31.07
2019-01-20T01:23:45.566Z,29.18
2019-01-20T01:26:14.676Z,32.03
2019-01-20T01:28:44.005Z,29.63
2019-01-20T01:31:13.142Z,32.17
2019-01-20T01:33:42.370Z,32.88
2019-01-20T01:36:11.531Z,29.30
2019-01-20T01:38:40.831Z,29.17
2019-01-20T01:41:10.197Z,32.13
2019-01-20T01:43:39.566Z,31.45
2019-01-20T01:46:08.701Z,30.23
2019-01-20T01:48:38.025Z,28.85
2019-01-20T01:51:07.127Z,31.20
2019-01-20T01:53:36.222Z,29.80
2019-01-20T01:56:05.844Z,30.77
2019-01-20T01:58:34.979Z,30.30
2019-01-20T02:01:04.739Z,29.82
2019-01-20T02:03:33.958Z,28.97
2019-01-20T02:06:03.196Z,33.30
2019-01-20T02:08:32.390Z,30.73
2019-01-20T02:11:01.786Z,34.70
2019-01-20T02:13:30.876Z,31.27
2019-01-20T02:16:00.024Z,31.23
2019-01-20T02:18:29.275Z,29.80
2019-01-20T02:20:58.421Z,29.63
2019-01-20T02:23:27.800Z,30.20
2019-01-20T02:25:57.125Z,29.02
2019-01-20T02:28:26.253Z,30.65
2019-01-20T02:30:55.376Z,31.60
2019-01-20T02:33:24.687Z,30.75
2019-01-20T02:35:53.824Z,31.07
2019-01-20T02:38:23.419Z,30.20
2019-01-20T02:40:52.641Z,30.73
2019-01-20T02:43:21.739Z,34.00
2019-01-20T02:45:51.086Z,31.60
2019-01-20T02:48:20.202Z,29.40
2019-01-20T02:50:49.429Z,29.77
2019-01-20T02:53:18.522Z,30.37
2019-01-20T02:55:47.826Z,29.80
2019-01-20T02:58:17.179Z,28.40
2019-01-20T03:00:46.397Z,33.93
2019-01-20T03:03:15.516Z,30.77
2019-01-20T03:05:44.633Z,30.13
2019-01-20T03:08:13.860Z,30.07
2019-01-20T03:10:42.954Z,29.23
2019-01-20T03:13:12.107Z,30.20
2019-01-20T03:15:41.361Z,29.93
2019-01-20T03:18:10.621Z,30.27
2019-01-20T03:20:39.838Z,30.08
2019-01-20T03:23:09.134Z,28.67
2019-01-20T03:25:38.334Z,29.03
2019-01-20T03:28:07.462Z,29.55
2019-01-20T03:30:36.592Z,27.47
2019-01-20T03:33:06.086Z,32.03
2019-01-20T03:35:35.446Z,30.07
2019-01-20T03:38:04.583Z,30.73
2019-01-20T03:40:33.661Z,27.80
2019-01-20T03:43:02.790Z,29.00
2019-01-20T03:45:32.069Z,29.00
2019-01-20T03:48:01.286Z,31.60
2019-01-20T03:50:30.598Z,28.80
2019-01-20T03:52:59.800Z,28.47
2019-01-20T03:55:29.018Z,29.83
2019-01-20T03:57:58.317Z,29.73
2019-01-20T04:00:27.516Z,31.37
2019-01-20T04:03:00.133Z,31.23
2019-01-20T04:05:29.212Z,28.47
2019-01-20T04:07:58.496Z,29.70
2019-01-20T04:10:27.696Z,27.07
2019-01-20T04:12:57.012Z,30.70
2019-01-20T04:15:27.083Z,28.20
2019-01-20T04:17:56.218Z,28.20
2019-01-20T04:20:25.319Z,29.63
2019-01-20T04:22:54.613Z,30.27
2019-01-20T04:25:23.834Z,26.47
2019-01-20T04:27:52.908Z,30.27
2019-01-20T04:30:22.230Z,28.00
2019-01-20T04:32:51.521Z,29.77
2019-01-20T04:35:20.605Z,30.17
2019-01-20T04:37:49.895Z,27.50
2019-01-20T04:40:21.143Z,30.57
2019-01-20T04:42:50.223Z,28.20
2019-01-20T04:45:19.386Z,30.83
2019-01-20T04:47:48.651Z,28.67
2019-01-20T04:50:25.096Z,31.13
2019-01-20T04:52:54.211Z,30.97
2019-01-20T04:55:23.299Z,32.40
2019-01-20T04:57:55.588Z,29.50
2019-01-20T05:00:28.647Z,31.20
2019-01-20T05:02:57.767Z,29.47
2019-01-20T05:05:27.109Z,30.60
2019-01-20T05:07:56.222Z,30.20
2019-01-20T05:10:25.515Z,28.67
2019-01-20T05:12:54.738Z,29.53
2019-01-20T05:15:25.367Z,28.57
2019-01-20T05:17:54.690Z,28.33
2019-01-20T05:20:24.063Z,28.80
2019-01-20T05:22:53.199Z,27.10
2019-01-20T05:25:22.303Z,29.03
2019-01-20T05:27:51.625Z,28.17
2019-01-20T05:30:23.192Z,28.23
2019-01-20T05:32:52.312Z,26.50
2019-01-20T05:35:21.658Z,27.73
2019-01-20T05:37:50.738Z,28.47
2019-01-20T05:40:20.453Z,31.73
2019-01-20T05:42:49.984Z,28.53
2019-01-20T05:45:21.105Z,29.17
2019-01-20T05:47:50.185Z,28.33
2019-01-20T05:50:19.822Z,30.77
2019-01-20T05:52:48.947Z,31.17
2019-01-20T05:55:18.068Z,29.13
2019-01-20T05:57:47.161Z,28.83
2019-01-20T06:00:24.135Z,29.47
2019-01-20T06:02:53.399Z,27.50
2019-01-20T06:05:22.673Z,29.27
2019-01-20T06:07:51.842Z,28.70
2019-01-20T06:10:21.123Z,29.67
2019-01-20T06:12:54.254Z,29.77
2019-01-20T06:15:22.080Z,28.77
2019-01-20T06:17:51.177Z,30.73
2019-01-20T06:20:20.299Z,28.77
2019-01-20T06:22:49.431Z,30.50
2019-01-20T06:25:18.547Z,31.27
2019-01-20T06:27:47.835Z,33.77
2019-01-20T06:30:19.748Z,31.30
2019-01-20T06:32:48.828Z,31.80
2019-01-20T06:35:18.305Z,32.03
2019-01-20T06:37:47.388Z,30.70
2019-01-20T06:40:16.553Z,30.80
2019-01-20T06:42:46.253Z,31.10
2019-01-20T06:45:15.544Z,30.90
2019-01-20T06:47:44.633Z,30.60
2019-01-20T06:50:15.336Z,31.10
2019-01-20T06:52:44.594Z,31.27
2019-01-20T06:55:14.173Z,28.83
2019-01-20T06:57:43.413Z,33.43
2019-01-20T07:00:15.806Z,31.87
2019-01-20T07:02:45.369Z,31.53
2019-01-20T07:05:14.724Z,31.23
2019-01-20T07:07:44.007Z,30.53
2019-01-20T07:10:14.430Z,31.33
2019-01-20T07:12:43.667Z,32.97
2019-01-20T07:15:18.021Z,32.07
2019-01-20T07:17:47.446Z,31.27
2019-01-20T07:20:17.007Z,31.17
2019-01-20T07:22:46.358Z,35.77
2019-01-20T07:25:15.793Z,31.13
2019-01-20T07:27:45.123Z,32.77
2019-01-20T07:30:16.747Z,31.23
2019-01-20T07:32:46.028Z,31.27
2019-01-20T07:35:16.285Z,33.57
2019-01-20T07:37:45.926Z,34.47
2019-01-20T07:40:18.031Z,31.50
2019-01-20T07:42:47.928Z,32.17
2019-01-20T07:45:17.503Z,31.40
2019-01-20T07:47:47.624Z,33.00
2019-01-20T07:50:19.162Z,31.90
2019-01-20T07:52:49.343Z,33.60
2019-01-20T07:55:18.708Z,32.30
2019-01-20T07:57:48.259Z,31.60
2019-01-20T08:00:19.999Z,33.27
2019-01-20T08:02:50.175Z,33.77
2019-01-20T08:05:19.772Z,33.17
2019-01-20T08:07:49.959Z,31.57
2019-01-20T08:10:21.781Z,33.57
2019-01-20T08:12:50.893Z,31.53
2019-01-20T08:15:20.315Z,33.30
2019-01-20T08:17:50.064Z,30.87
2019-01-20T08:20:20.123Z,32.40
2019-01-20T08:22:49.779Z,32.47
2019-01-20T08:25:19.179Z,37.57
2019-01-20T08:27:48.568Z,32.43
2019-01-20T08:30:20.775Z,33.90
2019-01-20T08:32:50.017Z,34.10
2019-01-20T08:35:19.213Z,32.90
2019-01-20T08:37:48.881Z,32.03
2019-01-20T08:40:26.243Z,31.13
2019-01-20T08:42:55.443Z,32.97
2019-01-20T08:46:01.379Z,34.30
2019-01-20T08:48:32.392Z,33.77
2019-01-20T08:51:01.866Z,35.30
2019-01-20T08:53:31.103Z,35.90
2019-01-20T08:56:00.416Z,37.03
2019-01-20T08:58:29.558Z,34.90
2019-01-20T09:00:58.891Z,34.17
2019-01-20T09:03:27.964Z,34.47
2019-01-20T09:05:57.410Z,32.67
2019-01-20T09:08:26.967Z,33.73
2019-01-20T09:10:56.105Z,33.73
2019-01-20T09:13:25.763Z,33.63
2019-01-20T09:15:55.091Z,34.10
2019-01-20T09:18:24.583Z,33.40
2019-01-20T09:20:54.030Z,34.10
2019-01-20T09:23:23.236Z,35.13
2019-01-20T09:25:52.381Z,33.00
2019-01-20T09:28:21.506Z,35.57
2019-01-20T09:30:51.108Z,33.67
2019-01-20T09:33:24.723Z,32.43
2019-01-20T09:35:53.782Z,34.53
2019-01-20T09:38:22.974Z,33.47
2019-01-20T09:40:52.481Z,33.90
2019-01-20T09:43:21.637Z,36.77
2019-01-20T09:45:52.158Z,36.13
2019-01-20T09:48:21.775Z,36.30
2019-01-20T09:50:51.204Z,35.10
2019-01-20T09:53:20.489Z,36.40
2019-01-20T09:55:49.789Z,34.50
2019-01-20T09:58:19.560Z,33.63
2019-01-20T10:00:48.858Z,38.33
2019-01-20T10:03:18.255Z,36.63
2019-01-20T10:05:47.360Z,35.10
2019-01-20T10:08:16.691Z,36.13
2019-01-20T10:10:45.837Z,37.80
2019-01-20T10:13:15.287Z,35.30
2019-01-20T10:15:44.445Z,35.07
2019-01-20T10:18:13.683Z,34.73
2019-01-20T10:20:42.810Z,36.37
2019-01-20T10:23:12.083Z,34.53
2019-01-20T10:25:41.175Z,34.23
2019-01-20T10:28:12.584Z,36.00
2019-01-20T10:30:41.811Z,37.93
2019-01-20T10:33:13.697Z,35.67
2019-01-20T10:35:47.238Z,35.90
2019-01-20T10:38:18.274Z,35.57
2019-01-20T10:40:47.602Z,35.57
2019-01-20T10:43:16.848Z,37.77
2019-01-20T10:45:45.975Z,35.20
2019-01-20T10:48:15.301Z,35.73
2019-01-20T10:50:44.498Z,33.77
2019-01-20T10:53:13.712Z,33.80
2019-01-20T10:55:43.440Z,37.13
2019-01-20T10:58:12.864Z,36.63
2019-01-20T11:00:42.570Z,38.43
2019-01-20T11:03:12.374Z,36.53
2019-01-20T11:05:41.742Z,36.10
2019-01-20T11:08:10.924Z,36.70
2019-01-20T11:10:40.335Z,37.57
2019-01-20T11:13:09.520Z,35.13
2019-01-20T11:15:38.771Z,35.70
2019-01-20T11:18:09.731Z,35.90
2019-01-20T11:20:38.857Z,35.93
2019-01-20T11:23:08.361Z,34.47
2019-01-20T11:25:42.994Z,35.13
2019-01-20T11:28:12.450Z,34.87
2019-01-20T11:30:41.830Z,36.37
2019-01-20T11:33:10.917Z,34.33
2019-01-20T11:35:40.064Z,35.40
2019-01-20T11:38:09.201Z,36.93
2019-01-20T11:40:38.490Z,36.07
2019-01-20T11:43:07.778Z,35.00
2019-01-20T11:45:37.774Z,36.93
2019-01-20T11:48:08.449Z,37.13
2019-01-20T11:50:38.079Z,35.63
2019-01-20T11:53:07.332Z,34.60
2019-01-20T11:55:36.742Z,36.80
2019-01-20T11:58:05.915Z,35.13
2019-01-20T12:00:37.183Z,37.70
2019-01-20T12:03:08.210Z,35.87
2019-01-20T12:05:40.452Z,34.10
2019-01-20T12:08:09.813Z,35.00
2019-01-20T12:10:39.122Z,37.10
2019-01-20T12:13:13.734Z,36.20
2019-01-20T12:15:43.130Z,36.60
2019-01-20T12:18:12.265Z,36.80
2019-01-20T12:20:41.415Z,34.03
2019-01-20T12:23:10.709Z,36.33
2019-01-20T12:25:40.039Z,36.37
2019-01-20T12:28:09.234Z,34.67
2019-01-20T12:30:39.698Z,33.17
2019-01-20T12:33:09.325Z,34.50
2019-01-20T12:35:38.701Z,34.80
2019-01-20T12:38:08.179Z,37.17
2019-01-20T12:40:46.203Z,33.10
2019-01-20T12:43:15.389Z,40.10
2019-01-20T12:45:44.742Z,33.90
2019-01-20T12:48:14.462Z,33.60
2019-01-20T12:50:43.799Z,35.37
2019-01-20T12:53:13.337Z,36.37
2019-01-20T12:55:42.444Z,35.27
2019-01-20T12:58:11.628Z,33.17
2019-01-20T13:00:40.855Z,33.23
2019-01-20T13:03:10.072Z,33.03
2019-01-20T13:05:39.369Z,32.97
2019-01-20T13:08:08.620Z,32.30
2019-01-20T13:10:37.943Z,35.60
2019-01-20T13:13:07.224Z,34.50
2019-01-20T13:15:36.928Z,33.80
2019-01-20T13:18:06.199Z,34.03
2019-01-20T13:20:35.534Z,33.47
2019-01-20T13:23:04.697Z,34.97
2019-01-20T13:25:33.947Z,33.73
2019-01-20T13:28:03.051Z,37.00
2019-01-20T13:30:32.188Z,34.63
2019-01-20T13:33:01.616Z,33.73
2019-01-20T13:35:31.085Z,36.03
2019-01-20T13:38:08.870Z,36.60
2019-01-20T13:40:50.874Z,33.73
2019-01-20T13:43:20.238Z,37.13
2019-01-20T13:45:49.521Z,34.47
2019-01-20T13:48:18.770Z,34.77
2019-01-20T13:50:48.044Z,36.33
2019-01-20T13:53:17.161Z,34.47
2019-01-20T13:55:47.279Z,33.40
2019-01-20T13:58:17.463Z,33.93
2019-01-20T14:00:46.864Z,35.77
2019-01-20T14:03:15.988Z,34.53
2019-01-20T14:05:45.351Z,35.77
2019-01-20T14:08:15.240Z,38.33
2019-01-20T14:10:44.516Z,33.83
2019-01-20T14:13:14.967Z,36.30
2019-01-20T14:15:44.377Z,35.50
2019-01-20T14:18:13.843Z,33.97
2019-01-20T14:20:43.233Z,33.27
2019-01-20T14:23:12.399Z,35.03
2019-01-20T14:25:41.517Z,33.30
2019-01-20T14:28:10.702Z,34.20
2019-01-20T14:30:40.012Z,34.70
2019-01-20T14:33:09.474Z,33.27
2019-01-20T14:35:38.627Z,36.73
2019-01-20T14:38:07.923Z,33.77
2019-01-20T14:40:37.050Z,33.60
2019-01-20T14:43:06.534Z,38.23
2019-01-20T14:45:35.851Z,34.90
2019-01-20T14:48:05.641Z,35.47
2019-01-20T14:50:35.119Z,32.87
2019-01-20T14:53:04.990Z,34.23
2019-01-20T14:55:34.325Z,31.70
2019-01-20T14:58:03.644Z,34.80
2019-01-20T15:00:35.057Z,34.30
2019-01-20T15:03:04.721Z,34.67
2019-01-20T15:05:34.274Z,35.33
2019-01-20T15:08:04.244Z,35.33
2019-01-20T15:10:33.368Z,38.43
2019-01-20T15:13:02.874Z,35.30
2019-01-20T15:15:34.905Z,33.93
2019-01-20T15:18:04.859Z,35.90
2019-01-20T15:20:34.434Z,33.97
2019-01-20T15:23:03.719Z,35.50
2019-01-20T15:25:33.412Z,37.80
2019-01-20T15:28:02.852Z,35.30
2019-01-20T15:30:32.494Z,34.57
2019-01-20T15:33:02.818Z,36.97
2019-01-20T15:35:32.128Z,34.80
2019-01-20T15:38:01.587Z,37.07
2019-01-20T15:40:31.024Z,34.50
2019-01-20T15:43:00.227Z,34.73
2019-01-20T15:45:30.266Z,36.80
2019-01-20T15:47:59.578Z,35.20
2019-01-20T15:50:31.823Z,35.97
2019-01-20T15:53:01.955Z,37.70
2019-01-20T15:55:31.742Z,37.37
2019-01-20T15:58:01.051Z,36.53
2019-01-20T16:00:31.945Z,39.50
2019-01-20T16:03:01.111Z,35.37
2019-01-20T16:05:30.995Z,37.13
2019-01-20T16:08:00.199Z,38.23
2019-01-20T16:10:29.505Z,35.40
2019-01-20T16:12:58.767Z,38.50
2019-01-20T16:15:33.669Z,36.10
2019-01-20T16:18:02.903Z,39.17
2019-01-20T16:20:33.129Z,38.70
2019-01-20T16:23:03.569Z,38.47
2019-01-20T16:25:37.376Z,37.33
2019-01-20T16:28:07.904Z,35.90
2019-01-20T16:30:39.144Z,39.20
2019-01-20T16:33:08.426Z,37.70
2019-01-20T16:35:37.534Z,37.50
2019-01-20T16:38:08.509Z,39.30
2019-01-20T16:40:38.179Z,38.57
2019-01-20T16:43:07.806Z,42.47
2019-01-20T16:45:42.116Z,38.17
2019-01-20T16:48:11.666Z,37.03
2019-01-20T16:50:41.115Z,35.73
2019-01-20T16:53:10.596Z,38.97
2019-01-20T16:55:39.889Z,39.97
2019-01-20T16:58:09.428Z,42.07
2019-01-20T17:00:41.250Z,37.93
2019-01-20T17:03:10.401Z,38.57
2019-01-20T17:05:39.751Z,38.17
2019-01-20T17:08:09.156Z,38.10
2019-01-20T17:10:40.633Z,37.40
2019-01-20T17:13:10.710Z,36.30
2019-01-20T17:15:42.144Z,37.77
2019-01-20T17:18:12.397Z,35.00
2019-01-20T17:20:41.577Z,36.60
2019-01-20T17:23:10.874Z,36.53
2019-01-20T17:25:39.951Z,35.30
2019-01-20T17:28:09.386Z,35.07
2019-01-20T17:30:39.341Z,39.47
2019-01-20T17:33:10.740Z,38.43
2019-01-20T17:35:39.947Z,36.33
2019-01-20T17:38:09.355Z,35.43
2019-01-20T17:40:38.559Z,36.83
2019-01-20T17:43:08.143Z,35.37
2019-01-20T17:45:48.388Z,35.50
2019-01-20T17:48:13.873Z,34.70
2019-01-20T17:50:44.581Z,34.47
2019-01-20T17:53:14.748Z,33.70
2019-01-20T17:55:44.361Z,36.90
2019-01-20T17:58:13.875Z,37.03
2019-01-20T18:01:11.607Z,36.67
2019-01-20T18:03:40.850Z,35.90
2019-01-20T18:06:10.075Z,35.60
2019-01-20T18:08:39.559Z,36.50
2019-01-20T18:11:09.166Z,37.23
2019-01-20T18:13:38.365Z,35.90
2019-01-20T18:16:07.657Z,36.83
2019-01-20T18:18:36.937Z,37.77
2019-01-20T18:21:06.557Z,39.17
2019-01-20T18:23:36.210Z,34.80
2019-01-20T18:26:05.744Z,38.23
2019-01-20T18:28:36.934Z,36.77
2019-01-20T18:31:06.227Z,37.00
2019-01-20T18:33:36.056Z,36.03
2019-01-20T18:36:05.498Z,37.57
2019-01-20T18:38:34.906Z,37.67
2019-01-20T18:41:04.784Z,37.33
2019-01-20T18:43:34.151Z,36.90
2019-01-20T18:46:03.888Z,36.27
2019-01-20T18:48:33.374Z,36.40
2019-01-20T18:51:02.864Z,38.20
2019-01-20T18:53:32.013Z,37.30
2019-01-20T18:56:01.389Z,36.80
2019-01-20T18:58:30.559Z,35.77
2019-01-20T19:01:00.190Z,39.20
2019-01-20T19:03:29.679Z,37.73
2019-01-20T19:05:59.212Z,37.80
2019-01-20T19:08:28.358Z,41.37
2019-01-20T19:10:57.964Z,39.10
2019-01-20T19:13:27.702Z,36.80
2019-01-20T19:15:56.834Z,37.97
2019-01-20T19:18:26.238Z,39.77
2019-01-20T19:20:55.550Z,39.07
2019-01-20T19:23:24.792Z,36.47
2019-01-20T19:25:54.445Z,38.53
2019-01-20T19:28:23.830Z,37.97
2019-01-20T19:30:53.338Z,39.20
2019-01-20T19:33:22.842Z,38.00
2019-01-20T19:35:52.422Z,37.63
2019-01-20T19:38:21.688Z,36.70
2019-01-20T19:40:50.852Z,39.00
2019-01-20T19:43:20.212Z,37.57
2019-01-20T19:45:49.411Z,39.60
2019-01-20T19:48:20.227Z,38.23
2019-01-20T19:50:49.678Z,38.30
2019-01-20T19:53:19.289Z,39.97
2019-01-20T19:55:48.925Z,39.87
2019-01-20T19:58:18.292Z,40.40
2019-01-20T20:00:47.630Z,37.57
2019-01-20T20:03:17.014Z,38.67
2019-01-20T20:05:46.707Z,40.43
2019-01-20T20:08:16.242Z,39.27
2019-01-20T20:10:45.614Z,39.27
2019-01-20T20:13:14.911Z,40.90
2019-01-20T20:15:44.403Z,38.40
2019-01-20T20:18:13.583Z,38.67
2019-01-20T20:20:43.029Z,41.30
2019-01-20T20:23:12.348Z,38.90
2019-01-20T20:25:41.824Z,42.00
2019-01-20T20:28:10.977Z,40.50
2019-01-20T20:30:40.246Z,42.50
2019-01-20T20:33:09.432Z,42.67
2019-01-20T20:35:38.802Z,42.27
2019-01-20T20:38:08.566Z,40.70
2019-01-20T20:40:38.089Z,42.67
2019-01-20T20:43:07.258Z,39.20
2019-01-20T20:45:36.848Z,40.03
2019-01-20T20:48:06.150Z,42.33
2019-01-20T20:50:35.440Z,42.40
2019-01-20T20:53:04.934Z,42.20
2019-01-20T20:55:34.403Z,43.07
2019-01-20T20:58:03.548Z,41.73
2019-01-20T21:00:38.785Z,41.10
2019-01-20T21:03:14.532Z,39.33
2019-01-20T21:05:43.890Z,40.20
2019-01-20T21:08:13.154Z,43.20
2019-01-20T21:10:42.371Z,43.27
2019-01-20T21:13:11.859Z,41.70
2019-01-20T21:15:41.063Z,42.47
2019-01-20T21:18:10.325Z,42.40
2019-01-20T21:20:39.533Z,45.80
2019-01-20T21:23:12.274Z,45.73
2019-01-20T21:25:40.420Z,44.23
2019-01-20T21:28:10.857Z,44.63
2019-01-20T21:30:42.125Z,42.20
2019-01-20T21:33:11.493Z,42.67
2019-01-20T21:35:40.728Z,40.23
2019-01-20T21:38:10.429Z,41.23
2019-01-20T21:40:39.882Z,40.37
2019-01-20T21:43:09.146Z,43.40
2019-01-20T21:45:38.253Z,42.90
2019-01-20T21:48:07.724Z,42.40
2019-01-20T21:50:37.524Z,44.47
2019-01-20T21:53:09.808Z,40.47
2019-01-20T21:55:40.006Z,39.30
2019-01-20T21:58:09.216Z,40.03
2019-01-20T22:00:38.520Z,42.07
2019-01-20T22:03:07.815Z,42.37
2019-01-20T22:05:37.089Z,44.40
2019-01-20T22:08:06.307Z,40.73
2019-01-20T22:10:35.657Z,41.00
2019-01-20T22:13:04.954Z,41.13
2019-01-20T22:15:34.103Z,43.77
2019-01-20T22:18:03.354Z,42.93
2019-01-20T22:20:32.646Z,42.30
2019-01-20T22:23:02.247Z,41.00
2019-01-20T22:25:31.570Z,44.10
2019-01-20T22:28:01.040Z,40.13
2019-01-20T22:30:30.382Z,41.10
2019-01-20T22:32:59.805Z,43.17
2019-01-20T22:35:29.303Z,40.33
2019-01-20T22:37:58.675Z,41.53
2019-01-20T22:40:28.181Z,41.90
2019-01-20T22:42:58.574Z,40.97
2019-01-20T22:45:28.718Z,41.10
2019-01-20T22:47:58.350Z,39.33
2019-01-20T22:50:27.775Z,38.87
2019-01-20T22:52:57.082Z,41.17
2019-01-20T22:55:26.227Z,38.70
2019-01-20T22:57:55.556Z,42.20
2019-01-20T23:00:47.056Z,40.50
2019-01-20T23:03:18.186Z,37.97
2019-01-20T23:05:48.537Z,41.53
2019-01-20T23:08:17.736Z,38.20
2019-01-20T23:10:46.872Z,38.03
2019-01-20T23:13:16.061Z,38.27
2019-01-20T23:15:45.532Z,37.73
2019-01-20T23:18:14.704Z,37.10
2019-01-20T23:20:44.095Z,36.20
2019-01-20T23:23:13.446Z,37.23
2019-01-20T23:25:42.725Z,36.63
2019-01-20T23:28:12.120Z,37.57
2019-01-20T23:30:41.481Z,36.27
2019-01-20T23:33:10.834Z,36.23
2019-01-20T23:35:40.146Z,35.70
2019-01-20T23:38:09.296Z,36.93
2019-01-20T23:40:38.511Z,39.30
2019-01-20T23:43:07.930Z,39.57
2019-01-20T23:45:37.037Z,38.73
2019-01-20T23:48:06.168Z,38.03
2019-01-20T23:50:35.563Z,37.57
2019-01-20T23:53:04.841Z,37.00
2019-01-20T23:55:35.338Z,34.23
2019-01-20T23:58:05.819Z,35.77
